Current Conditions
Clear
Conditions



Pressure
1017.92 (hPa) - 30.06 (inHG)
Visibility

10.0 (km) - 6.2 (miles)
   Temperature
8  °C
46°F
7  °C
Dewpoint
93  %
 Humidity
   Wind Speed
3  km/h
2  kts
2  mph
0.9  m/s
   Wind Direction
 200°
South South
West
   Airport Data
LFLL
Location Lyon Saint-Exupéry 75 km (46.61 mi)
Metar :LFLL 160500Z 20002KT CAVOK 08/07 Q1018 NOSIG
Wed 16th October 07:00 am
   Raw Metar Info
Raw METAR is the most common format in the world for the transmission of observational weather data. It is highly standardized through the International Civil Aviation Organization (ICAO), which allows it to be understood throughout most of the world.
   API Info
Data Provided by
https://www.checkwx.com/weather/LFLL
   © Info
CSS/SVG/PHP scripts were developed by weather34.com for use in the weather34 template © 2015-2019

Guide Info provided by Metar-Wikipedia